createdAt,value
2023-03-29T00:04:53.662Z,63.73
2023-03-29T00:09:58.522Z,62.85
2023-03-29T00:15:02.106Z,64.27
2023-03-29T00:20:08.867Z,63.69
2023-03-29T00:25:14.774Z,64.15
2023-03-29T00:30:18.468Z,64.19
2023-03-29T00:35:22.252Z,63.65
2023-03-29T00:40:27.782Z,62.99
2023-03-29T00:45:31.573Z,64.38
2023-03-29T00:50:38.175Z,62.75
2023-03-29T00:55:45.688Z,62.92
2023-03-29T01:00:53.914Z,63.67
2023-03-29T01:06:01.410Z,64.11
2023-03-29T01:11:09.872Z,63.77
2023-03-29T01:16:14.120Z,62.51
2023-03-29T01:21:23.704Z,62.92
2023-03-29T01:26:34.193Z,63.86
2023-03-29T01:31:42.806Z,62.51
2023-03-29T01:36:49.652Z,63.37
2023-03-29T01:42:00.990Z,63.54
2023-03-29T01:47:12.029Z,63.30
2023-03-29T01:52:18.702Z,62.54
2023-03-29T01:57:22.968Z,64.20
2023-03-29T02:02:28.604Z,63.51
2023-03-29T02:07:37.494Z,63.25
2023-03-29T02:12:41.004Z,62.66
2023-03-29T02:17:46.589Z,63.15
2023-03-29T02:22:56.314Z,64.54
2023-03-29T02:27:59.938Z,64.29
2023-03-29T02:33:08.099Z,63.70
2023-03-29T02:38:11.859Z,64.30
2023-03-29T02:43:16.083Z,64.25
2023-03-29T02:48:23.796Z,63.85
2023-03-29T02:53:34.548Z,62.98
2023-03-29T02:58:38.894Z,64.19
2023-03-29T03:03:45.391Z,64.44
2023-03-29T03:08:49.060Z,63.32
2023-03-29T03:13:52.619Z,63.43
2023-03-29T03:18:57.427Z,63.58
2023-03-29T03:24:00.949Z,64.08
2023-03-29T03:29:04.403Z,63.58
2023-03-29T03:34:09.762Z,62.81
2023-03-29T03:39:13.200Z,62.99
2023-03-29T03:44:16.760Z,63.37
2023-03-29T03:49:22.061Z,62.94
2023-03-29T03:54:25.699Z,63.10
2023-03-29T03:59:29.139Z,64.13
2023-03-29T04:04:34.387Z,62.39
2023-03-29T04:09:37.954Z,63.55
2023-03-29T04:14:41.403Z,63.08
2023-03-29T04:19:46.437Z,63.06
2023-03-29T04:24:49.909Z,63.57
2023-03-29T04:29:53.398Z,63.51
2023-03-29T04:34:58.285Z,62.90
2023-03-29T04:40:01.800Z,64.59
2023-03-29T04:45:07.104Z,64.45
2023-03-29T04:50:14.092Z,63.80
2023-03-29T04:55:17.782Z,64.38
2023-03-29T05:00:27.426Z,63.50
2023-03-29T05:05:32.384Z,62.91
2023-03-29T05:10:36.088Z,64.43
2023-03-29T05:15:41.210Z,62.74
2023-03-29T05:20:46.964Z,63.34
2023-03-29T05:25:50.488Z,64.15
2023-03-29T05:31:01.523Z,64.48
2023-03-29T05:36:08.309Z,63.18
2023-03-29T05:41:11.949Z,63.35
2023-03-29T05:46:15.736Z,64.41
2023-03-29T05:51:24.484Z,64.21
2023-03-29T05:56:28.074Z,64.25
2023-03-29T06:01:32.556Z,64.05
2023-03-29T06:06:37.455Z,63.46
2023-03-29T06:11:40.955Z,63.84
2023-03-29T06:16:45.278Z,62.85
2023-03-29T06:21:50.225Z,64.77
2023-03-29T06:26:53.926Z,64.32
2023-03-29T06:31:57.532Z,63.66
2023-03-29T06:37:02.401Z,64.36
2023-03-29T06:42:20.010Z,64.37
2023-03-29T06:47:30.935Z,62.89
2023-03-29T06:52:37.099Z,63.28
2023-03-29T06:57:40.774Z,63.27
2023-03-29T07:02:44.295Z,63.13
2023-03-29T07:07:57.101Z,63.63
2023-03-29T07:13:01.082Z,64.26
2023-03-29T07:18:05.171Z,64.04
2023-03-29T07:23:10.862Z,62.87
2023-03-29T07:28:14.313Z,64.38
2023-03-29T07:33:17.982Z,63.84
2023-03-29T07:38:23.033Z,64.02
2023-03-29T07:43:26.624Z,64.66
2023-03-29T07:48:30.549Z,64.30
2023-03-29T07:53:35.406Z,64.14
2023-03-29T07:58:39.067Z,63.36
2023-03-29T08:03:42.647Z,63.18
2023-03-29T08:08:47.564Z,64.80
2023-03-29T08:13:51.726Z,63.39
2023-03-29T08:18:55.351Z,63.13
2023-03-29T08:24:00.315Z,64.31
2023-03-29T08:29:04.228Z,63.89
2023-03-29T08:34:07.723Z,64.04
2023-03-29T08:39:12.579Z,64.13
2023-03-29T08:44:24.542Z,65.14
2023-03-29T08:49:28.627Z,63.41
2023-03-29T08:54:36.305Z,63.69
2023-03-29T08:59:40.780Z,65.05
2023-03-29T09:04:44.419Z,64.85
2023-03-29T09:09:49.288Z,64.40
2023-03-29T09:15:08.762Z,63.83
2023-03-29T09:20:23.700Z,63.48
2023-03-29T09:25:38.341Z,64.24
2023-03-29T09:30:53.263Z,63.99
2023-03-29T09:36:03.377Z,63.72
2023-03-29T09:41:19.222Z,63.36
2023-03-29T09:46:28.492Z,63.81
2023-03-29T09:51:33.577Z,64.01
2023-03-29T09:56:38.518Z,63.63
2023-03-29T10:01:45.573Z,64.06
2023-03-29T10:06:51.090Z,63.54
2023-03-29T10:11:58.020Z,63.77
2023-03-29T10:17:01.694Z,63.75
2023-03-29T10:22:07.810Z,64.51
2023-03-29T10:27:13.155Z,62.73
2023-03-29T10:32:18.620Z,64.03
2023-03-29T10:37:23.590Z,62.83
2023-03-29T10:42:29.175Z,61.40
2023-03-29T10:47:34.544Z,63.07
2023-03-29T10:52:38.412Z,63.25
2023-03-29T10:57:54.389Z,62.33
2023-03-29T11:03:25.285Z,63.98
2023-03-29T11:08:49.095Z,59.30
2023-03-29T11:14:01.740Z,63.21
2023-03-29T11:19:20.430Z,62.14
2023-03-29T11:24:43.046Z,62.48
2023-03-29T11:29:59.564Z,63.57
2023-03-29T11:35:11.027Z,64.16
2023-03-29T11:40:26.422Z,63.93
2023-03-29T11:45:34.453Z,62.44
2023-03-29T11:50:43.947Z,62.40
2023-03-29T11:55:48.385Z,62.30
2023-03-29T12:00:57.174Z,61.58
2023-03-29T12:06:05.128Z,60.74
2023-03-29T12:11:13.720Z,60.78
2023-03-29T12:16:22.223Z,60.94
2023-03-29T12:21:28.469Z,61.48
2023-03-29T12:26:47.752Z,62.00
2023-03-29T12:31:58.496Z,61.47
2023-03-29T12:37:23.582Z,62.69
2023-03-29T12:42:27.404Z,61.37
2023-03-29T12:47:38.455Z,62.05
2023-03-29T12:52:44.020Z,61.45
2023-03-29T12:58:02.667Z,61.99
2023-03-29T13:03:24.198Z,60.54
2023-03-29T13:08:29.653Z,61.29
2023-03-29T13:13:36.463Z,61.42
2023-03-29T13:18:52.056Z,61.80
2023-03-29T13:24:00.382Z,60.96
2023-03-29T13:29:19.000Z,62.67
2023-03-29T13:34:34.057Z,62.16
2023-03-29T13:39:37.938Z,61.47
2023-03-29T13:44:45.749Z,61.76
2023-03-29T13:49:54.537Z,62.57
2023-03-29T13:55:01.982Z,62.28
2023-03-29T14:00:12.041Z,61.94
2023-03-29T14:05:18.857Z,62.85
2023-03-29T14:10:26.181Z,62.65
2023-03-29T14:15:42.903Z,61.01
2023-03-29T14:20:49.303Z,60.84
2023-03-29T14:25:53.055Z,60.18
2023-03-29T14:30:56.941Z,60.49
2023-03-29T14:36:04.018Z,58.58
2023-03-29T14:41:07.879Z,61.24
2023-03-29T14:46:11.809Z,60.18
2023-03-29T14:51:16.895Z,61.03
2023-03-29T14:56:24.331Z,60.17
2023-03-29T15:01:28.102Z,60.46
2023-03-29T15:06:34.249Z,58.69
2023-03-29T15:11:39.998Z,59.17
2023-03-29T15:16:45.814Z,60.37
2023-03-29T15:21:51.384Z,60.13
2023-03-29T15:27:03.728Z,60.45
2023-03-29T15:32:07.572Z,60.03
2023-03-29T15:37:14.060Z,59.87
2023-03-29T15:42:17.496Z,58.81
2023-03-29T15:47:21.110Z,59.94
2023-03-29T15:52:26.111Z,57.61
2023-03-29T15:57:29.815Z,59.90
2023-03-29T16:02:33.532Z,59.41
2023-03-29T16:07:38.453Z,57.28
2023-03-29T16:12:41.939Z,58.44
2023-03-29T16:17:45.541Z,57.32
2023-03-29T16:22:51.576Z,58.74
2023-03-29T16:27:55.751Z,57.79
2023-03-29T16:32:59.283Z,56.39
2023-03-29T16:38:04.457Z,59.64
2023-03-29T16:43:08.012Z,57.19
2023-03-29T16:48:13.707Z,58.91
2023-03-29T16:53:20.193Z,57.82
2023-03-29T16:58:23.765Z,59.10
2023-03-29T17:03:27.983Z,58.62
2023-03-29T17:08:33.138Z,59.90
2023-03-29T17:13:37.624Z,59.79
2023-03-29T17:18:41.042Z,59.10
2023-03-29T17:23:45.948Z,59.24
2023-03-29T17:28:49.636Z,58.67
2023-03-29T17:33:53.136Z,59.48
2023-03-29T17:39:02.422Z,59.42
2023-03-29T17:44:07.413Z,59.91
2023-03-29T17:49:10.914Z,59.57
2023-03-29T17:54:16.500Z,59.69
2023-03-29T17:59:20.050Z,59.43
2023-03-29T18:04:23.551Z,59.40
2023-03-29T18:09:30.779Z,60.36
2023-03-29T18:14:34.968Z,60.18
2023-03-29T18:19:38.431Z,59.98
2023-03-29T18:24:43.640Z,60.81
2023-03-29T18:29:47.145Z,60.40
2023-03-29T18:34:50.724Z,60.02
2023-03-29T18:39:55.860Z,60.91
2023-03-29T18:44:59.501Z,61.16
2023-03-29T18:50:03.016Z,60.93
2023-03-29T18:55:10.396Z,61.77
2023-03-29T19:00:14.321Z,60.96
2023-03-29T19:05:17.882Z,61.63
2023-03-29T19:10:24.751Z,61.52
2023-03-29T19:15:28.268Z,62.01
2023-03-29T19:20:32.051Z,61.12
2023-03-29T19:25:37.093Z,61.45
2023-03-29T19:30:40.491Z,62.30
2023-03-29T19:35:44.108Z,61.82
2023-03-29T19:40:50.222Z,61.71
2023-03-29T19:45:53.722Z,62.27
2023-03-29T19:51:02.884Z,61.83
2023-03-29T19:56:11.086Z,61.76
2023-03-29T20:01:15.776Z,62.36
2023-03-29T20:06:20.289Z,62.19
2023-03-29T20:11:25.162Z,62.04
2023-03-29T20:16:30.000Z,62.09
2023-03-29T20:21:34.441Z,62.54
2023-03-29T20:26:39.383Z,62.56
2023-03-29T20:31:43.008Z,62.78
2023-03-29T20:36:47.020Z,62.29
2023-03-29T20:41:52.259Z,62.97
2023-03-29T20:47:03.983Z,63.51
2023-03-29T20:52:09.284Z,63.15
2023-03-29T20:57:16.253Z,63.49
2023-03-29T21:02:22.333Z,63.53
2023-03-29T21:07:26.820Z,62.86
2023-03-29T21:12:31.821Z,63.75
2023-03-29T21:17:35.353Z,63.55
2023-03-29T21:22:39.208Z,63.68
2023-03-29T21:27:44.382Z,64.18
2023-03-29T21:32:47.935Z,63.36
2023-03-29T21:37:51.458Z,63.17
2023-03-29T21:42:56.469Z,63.51
2023-03-29T21:47:59.944Z,63.91
2023-03-29T21:53:03.505Z,63.44
2023-03-29T21:58:08.435Z,63.49
2023-03-29T22:03:12.011Z,64.32
2023-03-29T22:08:15.557Z,64.48
2023-03-29T22:13:20.460Z,63.66
2023-03-29T22:18:23.897Z,63.46
2023-03-29T22:23:27.863Z,63.14
2023-03-29T22:28:32.703Z,63.97
2023-03-29T22:33:37.125Z,64.16
2023-03-29T22:38:40.781Z,64.25
2023-03-29T22:43:46.116Z,64.72
2023-03-29T22:48:49.999Z,63.58
2023-03-29T22:53:53.482Z,64.34
2023-03-29T22:58:58.354Z,64.14
2023-03-29T23:04:01.937Z,64.25
2023-03-29T23:09:05.746Z,64.26
2023-03-29T23:14:10.675Z,63.91
2023-03-29T23:19:14.158Z,64.64
2023-03-29T23:24:19.240Z,63.99
2023-03-29T23:29:26.450Z,64.50
2023-03-29T23:34:29.969Z,64.26
2023-03-29T23:39:33.952Z,64.21
2023-03-29T23:44:38.926Z,64.34
2023-03-29T23:49:45.516Z,64.33
2023-03-29T23:54:49.074Z,63.95
2023-03-29T23:59:56.016Z,65.03
